sensor_id;sensor_type;location;lat;lon;timestamp;temperature;humidity
19941;DHT22;10132;50.864;5.176;2023-03-01T00:00:40;-0.10;99.90
19941;DHT22;10132;50.864;5.176;2023-03-01T00:02:48;-0.10;99.90
19941;DHT22;10132;50.864;5.176;2023-03-01T00:04:50;-0.10;99.90
19941;DHT22;10132;50.864;5.176;2023-03-01T00:06:52;-0.10;99.90
19941;DHT22;10132;50.864;5.176;2023-03-01T00:08:54;0.00;99.90
19941;DHT22;10132;50.864;5.176;2023-03-01T00:11:04;0.00;99.90
19941;DHT22;10132;50.864;5.176;2023-03-01T00:13:06;0.00;99.90
19941;DHT22;10132;50.864;5.176;2023-03-01T00:15:08;0.10;99.90
19941;DHT22;10132;50.864;5.176;2023-03-01T00:17:10;0.10;99.90
19941;DHT22;10132;50.864;5.176;2023-03-01T00:19:15;0.00;99.90
19941;DHT22;10132;50.864;5.176;2023-03-01T00:21:18;-0.10;99.90
19941;DHT22;10132;50.864;5.176;2023-03-01T00:23:22;0.00;99.90
19941;DHT22;10132;50.864;5.176;2023-03-01T00:25:24;0.10;99.90
19941;DHT22;10132;50.864;5.176;2023-03-01T00:27:26;0.10;99.90
19941;DHT22;10132;50.864;5.176;2023-03-01T00:29:28;0.00;99.90
19941;DHT22;10132;50.864;5.176;2023-03-01T00:31:32;-0.10;99.90
19941;DHT22;10132;50.864;5.176;2023-03-01T00:33:34;0.00;99.90
19941;DHT22;10132;50.864;5.176;2023-03-01T00:35:37;-0.10;99.90
19941;DHT22;10132;50.864;5.176;2023-03-01T00:37:39;0.00;99.90
19941;DHT22;10132;50.864;5.176;2023-03-01T00:39:42;0.10;99.90
19941;DHT22;10132;50.864;5.176;2023-03-01T00:41:44;0.10;99.90
19941;DHT22;10132;50.864;5.176;2023-03-01T00:43:46;0.10;99.90
19941;DHT22;10132;50.864;5.176;2023-03-01T00:45:49;0.00;99.90
19941;DHT22;10132;50.864;5.176;2023-03-01T00:47:51;-0.10;99.90
19941;DHT22;10132;50.864;5.176;2023-03-01T00:49:53;-0.30;99.90
19941;DHT22;10132;50.864;5.176;2023-03-01T00:51:56;-0.40;99.90
19941;DHT22;10132;50.864;5.176;2023-03-01T00:54:00;-0.50;99.90
19941;DHT22;10132;50.864;5.176;2023-03-01T00:56:02;-0.50;99.90
19941;DHT22;10132;50.864;5.176;2023-03-01T00:58:05;-0.60;99.90
19941;DHT22;10132;50.864;5.176;2023-03-01T01:00:08;-0.60;99.90
19941;DHT22;10132;50.864;5.176;2023-03-01T01:02:12;-0.60;99.90
19941;DHT22;10132;50.864;5.176;2023-03-01T01:04:14;-0.60;99.90
19941;DHT22;10132;50.864;5.176;2023-03-01T01:06:17;-0.60;99.90
19941;DHT22;10132;50.864;5.176;2023-03-01T01:08:21;-0.60;99.90
19941;DHT22;10132;50.864;5.176;2023-03-01T01:10:23;-0.60;99.90
19941;DHT22;10132;50.864;5.176;2023-03-01T01:12:25;-0.60;99.90
19941;DHT22;10132;50.864;5.176;2023-03-01T01:14:27;-0.50;99.90
19941;DHT22;10132;50.864;5.176;2023-03-01T01:16:29;-0.40;99.90
19941;DHT22;10132;50.864;5.176;2023-03-01T01:18:31;-0.20;99.90
19941;DHT22;10132;50.864;5.176;2023-03-01T01:20:35;-0.20;99.90
19941;DHT22;10132;50.864;5.176;2023-03-01T01:22:38;-0.10;99.90
19941;DHT22;10132;50.864;5.176;2023-03-01T01:24:41;-0.10;99.90
19941;DHT22;10132;50.864;5.176;2023-03-01T01:26:43;-0.20;99.90
19941;DHT22;10132;50.864;5.176;2023-03-01T01:28:45;-0.20;99.90
19941;DHT22;10132;50.864;5.176;2023-03-01T01:30:47;-0.30;99.90
19941;DHT22;10132;50.864;5.176;2023-03-01T01:32:49;-0.40;99.90
19941;DHT22;10132;50.864;5.176;2023-03-01T01:34:51;-0.30;99.90
19941;DHT22;10132;50.864;5.176;2023-03-01T01:36:53;-0.40;99.90
19941;DHT22;10132;50.864;5.176;2023-03-01T01:38:56;-0.40;99.90
19941;DHT22;10132;50.864;5.176;2023-03-01T01:40:59;-0.30;99.90
19941;DHT22;10132;50.864;5.176;2023-03-01T01:43:01;-0.40;99.90
19941;DHT22;10132;50.864;5.176;2023-03-01T01:45:26;-0.40;99.90
19941;DHT22;10132;50.864;5.176;2023-03-01T01:47:28;-0.40;99.90
19941;DHT22;10132;50.864;5.176;2023-03-01T01:49:33;-0.40;99.90
19941;DHT22;10132;50.864;5.176;2023-03-01T01:51:39;-0.60;99.90
19941;DHT22;10132;50.864;5.176;2023-03-01T01:53:43;-0.80;99.90
19941;DHT22;10132;50.864;5.176;2023-03-01T01:55:51;-0.80;99.90
19941;DHT22;10132;50.864;5.176;2023-03-01T01:57:56;-0.70;99.90
19941;DHT22;10132;50.864;5.176;2023-03-01T02:00:06;-0.60;99.90
19941;DHT22;10132;50.864;5.176;2023-03-01T02:02:09;-0.60;99.90
19941;DHT22;10132;50.864;5.176;2023-03-01T02:04:11;-0.60;99.90
19941;DHT22;10132;50.864;5.176;2023-03-01T02:06:17;-0.80;99.90
19941;DHT22;10132;50.864;5.176;2023-03-01T02:08:21;-0.90;99.90
19941;DHT22;10132;50.864;5.176;2023-03-01T02:10:24;-1.00;99.90
19941;DHT22;10132;50.864;5.176;2023-03-01T02:12:28;-1.00;99.90
19941;DHT22;10132;50.864;5.176;2023-03-01T02:14:33;-0.90;99.90
19941;DHT22;10132;50.864;5.176;2023-03-01T02:16:35;-0.80;99.90
19941;DHT22;10132;50.864;5.176;2023-03-01T02:18:38;-0.70;99.90
19941;DHT22;10132;50.864;5.176;2023-03-01T02:20:48;-0.60;99.90
19941;DHT22;10132;50.864;5.176;2023-03-01T02:22:51;-0.60;99.90
19941;DHT22;10132;50.864;5.176;2023-03-01T02:25:03;-0.60;99.90
19941;DHT22;10132;50.864;5.176;2023-03-01T02:27:09;-0.50;99.90
19941;DHT22;10132;50.864;5.176;2023-03-01T02:29:13;-0.60;99.90
19941;DHT22;10132;50.864;5.176;2023-03-01T02:31:17;-0.70;99.90
19941;DHT22;10132;50.864;5.176;2023-03-01T02:33:38;-0.70;99.90
19941;DHT22;10132;50.864;5.176;2023-03-01T02:35:41;-0.70;99.90
19941;DHT22;10132;50.864;5.176;2023-03-01T02:37:43;-0.70;99.90
19941;DHT22;10132;50.864;5.176;2023-03-01T02:39:48;-0.70;99.90
19941;DHT22;10132;50.864;5.176;2023-03-01T02:41:53;-0.70;99.90
19941;DHT22;10132;50.864;5.176;2023-03-01T02:43:55;-0.80;99.90
19941;DHT22;10132;50.864;5.176;2023-03-01T02:46:02;-0.90;99.90
19941;DHT22;10132;50.864;5.176;2023-03-01T02:48:04;-0.90;99.90
19941;DHT22;10132;50.864;5.176;2023-03-01T02:50:15;-0.90;99.90
19941;DHT22;10132;50.864;5.176;2023-03-01T02:52:43;-1.10;99.90
19941;DHT22;10132;50.864;5.176;2023-03-01T02:54:50;-1.20;99.90
19941;DHT22;10132;50.864;5.176;2023-03-01T02:56:52;-1.30;99.90
19941;DHT22;10132;50.864;5.176;2023-03-01T02:58:54;-1.30;99.90
19941;DHT22;10132;50.864;5.176;2023-03-01T03:01:02;-1.30;99.90
19941;DHT22;10132;50.864;5.176;2023-03-01T03:03:04;-1.40;99.90
19941;DHT22;10132;50.864;5.176;2023-03-01T03:05:10;-1.60;99.90
19941;DHT22;10132;50.864;5.176;2023-03-01T03:07:12;-1.70;99.90
19941;DHT22;10132;50.864;5.176;2023-03-01T03:09:14;-1.70;99.90
19941;DHT22;10132;50.864;5.176;2023-03-01T03:11:17;-1.70;99.90
19941;DHT22;10132;50.864;5.176;2023-03-01T03:13:19;-1.70;99.90
19941;DHT22;10132;50.864;5.176;2023-03-01T03:15:22;-1.60;99.90
19941;DHT22;10132;50.864;5.176;2023-03-01T03:17:26;-1.40;99.90
19941;DHT22;10132;50.864;5.176;2023-03-01T03:19:28;-1.40;99.90
19941;DHT22;10132;50.864;5.176;2023-03-01T03:21:30;-1.40;99.90
19941;DHT22;10132;50.864;5.176;2023-03-01T03:23:32;-1.50;99.90
19941;DHT22;10132;50.864;5.176;2023-03-01T03:25:34;-1.50;99.90
19941;DHT22;10132;50.864;5.176;2023-03-01T03:27:38;-1.50;99.90
19941;DHT22;10132;50.864;5.176;2023-03-01T03:29:40;-1.60;99.90
19941;DHT22;10132;50.864;5.176;2023-03-01T03:31:42;-1.60;99.90
19941;DHT22;10132;50.864;5.176;2023-03-01T03:33:46;-1.60;99.90
19941;DHT22;10132;50.864;5.176;2023-03-01T03:35:49;-1.60;99.90
19941;DHT22;10132;50.864;5.176;2023-03-01T03:37:52;-1.50;99.90
19941;DHT22;10132;50.864;5.176;2023-03-01T03:40:08;-1.40;99.90
19941;DHT22;10132;50.864;5.176;2023-03-01T03:42:15;-1.40;99.90
19941;DHT22;10132;50.864;5.176;2023-03-01T03:44:17;-1.60;99.90
19941;DHT22;10132;50.864;5.176;2023-03-01T03:46:19;-1.70;99.90
19941;DHT22;10132;50.864;5.176;2023-03-01T03:48:21;-1.80;99.90
19941;DHT22;10132;50.864;5.176;2023-03-01T03:50:25;-1.90;99.90
19941;DHT22;10132;50.864;5.176;2023-03-01T03:52:27;-1.90;99.90
19941;DHT22;10132;50.864;5.176;2023-03-01T03:54:29;-2.00;99.90
19941;DHT22;10132;50.864;5.176;2023-03-01T03:56:31;-2.00;99.90
19941;DHT22;10132;50.864;5.176;2023-03-01T03:58:33;-2.00;99.90
19941;DHT22;10132;50.864;5.176;2023-03-01T04:00:37;-2.10;99.90
19941;DHT22;10132;50.864;5.176;2023-03-01T04:02:39;-2.10;99.90
19941;DHT22;10132;50.864;5.176;2023-03-01T04:04:41;-2.00;99.90
19941;DHT22;10132;50.864;5.176;2023-03-01T04:06:45;-1.80;99.90
19941;DHT22;10132;50.864;5.176;2023-03-01T04:08:49;-1.70;99.90
19941;DHT22;10132;50.864;5.176;2023-03-01T04:10:53;-1.80;99.90
19941;DHT22;10132;50.864;5.176;2023-03-01T04:12:58;-1.90;99.90
19941;DHT22;10132;50.864;5.176;2023-03-01T04:15:00;-2.10;99.90
19941;DHT22;10132;50.864;5.176;2023-03-01T04:17:02;-2.00;99.90
19941;DHT22;10132;50.864;5.176;2023-03-01T04:19:05;-2.00;99.90
19941;DHT22;10132;50.864;5.176;2023-03-01T04:21:10;-1.90;99.90
19941;DHT22;10132;50.864;5.176;2023-03-01T04:23:15;-2.10;99.90
19941;DHT22;10132;50.864;5.176;2023-03-01T04:25:20;-2.20;99.90
19941;DHT22;10132;50.864;5.176;2023-03-01T04:27:22;-2.30;99.90
19941;DHT22;10132;50.864;5.176;2023-03-01T04:29:24;-2.10;99.90
19941;DHT22;10132;50.864;5.176;2023-03-01T04:31:26;-2.00;99.90
19941;DHT22;10132;50.864;5.176;2023-03-01T04:33:28;-2.00;99.90
19941;DHT22;10132;50.864;5.176;2023-03-01T04:35:30;-2.10;99.90
19941;DHT22;10132;50.864;5.176;2023-03-01T04:37:33;-2.20;99.90
19941;DHT22;10132;50.864;5.176;2023-03-01T04:39:36;-2.20;99.90
19941;DHT22;10132;50.864;5.176;2023-03-01T04:41:45;-2.00;99.90
19941;DHT22;10132;50.864;5.176;2023-03-01T04:43:48;-2.00;99.90
19941;DHT22;10132;50.864;5.176;2023-03-01T04:45:50;-2.10;99.90
19941;DHT22;10132;50.864;5.176;2023-03-01T04:47:52;-2.20;99.90
19941;DHT22;10132;50.864;5.176;2023-03-01T04:49:54;-2.30;99.90
19941;DHT22;10132;50.864;5.176;2023-03-01T04:51:56;-2.40;99.90
19941;DHT22;10132;50.864;5.176;2023-03-01T04:53:58;-2.30;99.90
19941;DHT22;10132;50.864;5.176;2023-03-01T04:56:03;-2.20;99.90
19941;DHT22;10132;50.864;5.176;2023-03-01T04:58:05;-2.30;99.90
19941;DHT22;10132;50.864;5.176;2023-03-01T05:00:09;-2.40;99.90
19941;DHT22;10132;50.864;5.176;2023-03-01T05:02:21;-2.40;99.90
19941;DHT22;10132;50.864;5.176;2023-03-01T05:04:23;-2.40;99.90
19941;DHT22;10132;50.864;5.176;2023-03-01T05:06:26;-2.40;99.90
19941;DHT22;10132;50.864;5.176;2023-03-01T05:08:28;-2.50;99.90
19941;DHT22;10132;50.864;5.176;2023-03-01T05:10:32;-2.30;99.90
19941;DHT22;10132;50.864;5.176;2023-03-01T05:12:37;-2.30;99.90
19941;DHT22;10132;50.864;5.176;2023-03-01T05:14:39;-2.30;99.90
19941;DHT22;10132;50.864;5.176;2023-03-01T05:16:40;-2.30;99.90
19941;DHT22;10132;50.864;5.176;2023-03-01T05:18:42;-2.30;99.90
19941;DHT22;10132;50.864;5.176;2023-03-01T05:20:44;-2.30;99.90
19941;DHT22;10132;50.864;5.176;2023-03-01T05:22:47;-2.30;99.90
19941;DHT22;10132;50.864;5.176;2023-03-01T05:24:49;-2.50;99.90
19941;DHT22;10132;50.864;5.176;2023-03-01T05:26:51;-2.40;99.90
19941;DHT22;10132;50.864;5.176;2023-03-01T05:28:55;-2.30;99.90
19941;DHT22;10132;50.864;5.176;2023-03-01T05:30:59;-2.30;99.90
19941;DHT22;10132;50.864;5.176;2023-03-01T05:33:01;-2.40;99.90
19941;DHT22;10132;50.864;5.176;2023-03-01T05:35:03;-2.30;99.90
19941;DHT22;10132;50.864;5.176;2023-03-01T05:37:06;-2.20;99.90
19941;DHT22;10132;50.864;5.176;2023-03-01T05:39:09;-2.20;99.90
19941;DHT22;10132;50.864;5.176;2023-03-01T05:41:14;-2.10;99.90
19941;DHT22;10132;50.864;5.176;2023-03-01T05:43:17;-2.10;99.90
19941;DHT22;10132;50.864;5.176;2023-03-01T05:45:22;-2.10;99.90
19941;DHT22;10132;50.864;5.176;2023-03-01T05:47:24;-2.10;99.90
19941;DHT22;10132;50.864;5.176;2023-03-01T05:49:26;-2.20;99.90
19941;DHT22;10132;50.864;5.176;2023-03-01T05:51:28;-2.40;99.90
19941;DHT22;10132;50.864;5.176;2023-03-01T05:53:30;-2.40;99.90
19941;DHT22;10132;50.864;5.176;2023-03-01T05:55:32;-2.50;99.90
19941;DHT22;10132;50.864;5.176;2023-03-01T05:57:34;-2.60;99.90
19941;DHT22;10132;50.864;5.176;2023-03-01T05:59:36;-2.60;99.90
19941;DHT22;10132;50.864;5.176;2023-03-01T06:01:40;-2.60;99.90
19941;DHT22;10132;50.864;5.176;2023-03-01T06:03:42;-2.70;99.90
19941;DHT22;10132;50.864;5.176;2023-03-01T06:05:44;-2.60;99.90
19941;DHT22;10132;50.864;5.176;2023-03-01T06:07:46;-2.50;99.90
19941;DHT22;10132;50.864;5.176;2023-03-01T06:09:48;-2.50;99.90
19941;DHT22;10132;50.864;5.176;2023-03-01T06:11:50;-2.70;99.90
19941;DHT22;10132;50.864;5.176;2023-03-01T06:13:52;-2.80;99.90
19941;DHT22;10132;50.864;5.176;2023-03-01T06:15:54;-2.90;99.90
19941;DHT22;10132;50.864;5.176;2023-03-01T06:17:57;-2.90;99.90
19941;DHT22;10132;50.864;5.176;2023-03-01T06:19:59;-2.90;99.90
19941;DHT22;10132;50.864;5.176;2023-03-01T06:22:01;-2.90;99.90
19941;DHT22;10132;50.864;5.176;2023-03-01T06:24:04;-2.90;99.90
19941;DHT22;10132;50.864;5.176;2023-03-01T06:26:08;-2.80;99.90
19941;DHT22;10132;50.864;5.176;2023-03-01T06:28:10;-2.90;99.90
19941;DHT22;10132;50.864;5.176;2023-03-01T06:32:17;-3.00;99.90
19941;DHT22;10132;50.864;5.176;2023-03-01T06:34:20;-3.00;99.90
19941;DHT22;10132;50.864;5.176;2023-03-01T06:36:22;-2.90;99.90
19941;DHT22;10132;50.864;5.176;2023-03-01T06:38:24;-2.80;99.90
19941;DHT22;10132;50.864;5.176;2023-03-01T06:40:26;-2.80;99.90
19941;DHT22;10132;50.864;5.176;2023-03-01T06:42:28;-2.80;99.90
19941;DHT22;10132;50.864;5.176;2023-03-01T06:44:30;-2.80;99.90
19941;DHT22;10132;50.864;5.176;2023-03-01T06:46:32;-2.80;99.90
19941;DHT22;10132;50.864;5.176;2023-03-01T06:48:34;-2.80;99.90
19941;DHT22;10132;50.864;5.176;2023-03-01T06:50:37;-2.90;99.90
19941;DHT22;10132;50.864;5.176;2023-03-01T06:52:40;-2.90;99.90
19941;DHT22;10132;50.864;5.176;2023-03-01T06:54:42;-2.90;99.90
19941;DHT22;10132;50.864;5.176;2023-03-01T06:56:46;-2.70;99.90
19941;DHT22;10132;50.864;5.176;2023-03-01T06:58:48;-2.60;99.90
19941;DHT22;10132;50.864;5.176;2023-03-01T07:00:50;-2.40;99.90
19941;DHT22;10132;50.864;5.176;2023-03-01T07:02:53;-2.20;99.90
19941;DHT22;10132;50.864;5.176;2023-03-01T07:04:55;-2.10;99.90
19941;DHT22;10132;50.864;5.176;2023-03-01T07:06:58;-2.10;99.90
19941;DHT22;10132;50.864;5.176;2023-03-01T07:09:00;-2.10;99.90
19941;DHT22;10132;50.864;5.176;2023-03-01T07:11:02;-1.90;99.90
19941;DHT22;10132;50.864;5.176;2023-03-01T07:13:04;-1.70;99.90
19941;DHT22;10132;50.864;5.176;2023-03-01T07:15:09;-1.50;99.90
19941;DHT22;10132;50.864;5.176;2023-03-01T07:17:11;-1.30;99.90
19941;DHT22;10132;50.864;5.176;2023-03-01T07:19:13;-1.30;99.90
19941;DHT22;10132;50.864;5.176;2023-03-01T07:21:15;-1.10;99.90
19941;DHT22;10132;50.864;5.176;2023-03-01T07:23:19;-1.00;99.90
19941;DHT22;10132;50.864;5.176;2023-03-01T07:25:21;-1.00;99.90
19941;DHT22;10132;50.864;5.176;2023-03-01T07:27:23;-0.80;99.90
19941;DHT22;10132;50.864;5.176;2023-03-01T07:29:25;-0.80;99.90
19941;DHT22;10132;50.864;5.176;2023-03-01T07:31:29;-0.70;99.90
19941;DHT22;10132;50.864;5.176;2023-03-01T07:33:31;-0.60;99.90
19941;DHT22;10132;50.864;5.176;2023-03-01T07:35:33;-0.50;99.90
19941;DHT22;10132;50.864;5.176;2023-03-01T07:37:35;-0.40;99.90
19941;DHT22;10132;50.864;5.176;2023-03-01T07:39:38;-0.30;99.90
19941;DHT22;10132;50.864;5.176;2023-03-01T07:41:40;-0.20;99.90
19941;DHT22;10132;50.864;5.176;2023-03-01T07:43:42;-0.10;99.90
19941;DHT22;10132;50.864;5.176;2023-03-01T07:45:44;0.10;99.90
19941;DHT22;10132;50.864;5.176;2023-03-01T07:47:46;0.10;99.90
19941;DHT22;10132;50.864;5.176;2023-03-01T07:49:48;0.30;99.90
19941;DHT22;10132;50.864;5.176;2023-03-01T07:51:50;0.30;99.90
19941;DHT22;10132;50.864;5.176;2023-03-01T07:53:52;0.40;99.90
19941;DHT22;10132;50.864;5.176;2023-03-01T07:56:02;0.50;99.90
19941;DHT22;10132;50.864;5.176;2023-03-01T07:58:04;0.80;99.90
19941;DHT22;10132;50.864;5.176;2023-03-01T08:00:09;0.90;99.90
19941;DHT22;10132;50.864;5.176;2023-03-01T08:02:11;0.90;99.90
19941;DHT22;10132;50.864;5.176;2023-03-01T08:04:15;0.90;99.90
19941;DHT22;10132;50.864;5.176;2023-03-01T08:06:18;1.00;99.90
19941;DHT22;10132;50.864;5.176;2023-03-01T08:08:20;1.10;99.90
19941;DHT22;10132;50.864;5.176;2023-03-01T08:10:22;1.10;99.90
19941;DHT22;10132;50.864;5.176;2023-03-01T08:12:25;1.20;99.90
19941;DHT22;10132;50.864;5.176;2023-03-01T08:14:28;1.40;99.90
19941;DHT22;10132;50.864;5.176;2023-03-01T08:16:30;1.50;99.90
19941;DHT22;10132;50.864;5.176;2023-03-01T08:18:34;1.60;99.90
19941;DHT22;10132;50.864;5.176;2023-03-01T08:20:36;1.70;99.90
19941;DHT22;10132;50.864;5.176;2023-03-01T08:22:37;1.90;99.90
19941;DHT22;10132;50.864;5.176;2023-03-01T08:24:39;1.90;99.90
19941;DHT22;10132;50.864;5.176;2023-03-01T08:26:41;1.70;99.90
19941;DHT22;10132;50.864;5.176;2023-03-01T08:28:45;1.80;99.90
19941;DHT22;10132;50.864;5.176;2023-03-01T08:30:48;1.90;99.90
19941;DHT22;10132;50.864;5.176;2023-03-01T08:32:50;2.00;99.90
19941;DHT22;10132;50.864;5.176;2023-03-01T08:34:52;2.00;99.90
19941;DHT22;10132;50.864;5.176;2023-03-01T08:36:54;1.90;99.90
19941;DHT22;10132;50.864;5.176;2023-03-01T08:38:56;1.90;99.90
19941;DHT22;10132;50.864;5.176;2023-03-01T08:41:00;2.10;99.90
19941;DHT22;10132;50.864;5.176;2023-03-01T08:43:02;2.20;99.90
19941;DHT22;10132;50.864;5.176;2023-03-01T08:45:06;2.30;99.90
19941;DHT22;10132;50.864;5.176;2023-03-01T08:47:08;2.50;99.90
19941;DHT22;10132;50.864;5.176;2023-03-01T08:49:12;2.70;99.90
19941;DHT22;10132;50.864;5.176;2023-03-01T08:51:16;2.70;99.90
19941;DHT22;10132;50.864;5.176;2023-03-01T08:53:18;2.70;99.90
19941;DHT22;10132;50.864;5.176;2023-03-01T08:55:20;2.70;99.90
19941;DHT22;10132;50.864;5.176;2023-03-01T08:57:22;2.80;99.90
19941;DHT22;10132;50.864;5.176;2023-03-01T08:59:25;3.10;99.90
19941;DHT22;10132;50.864;5.176;2023-03-01T09:01:28;3.40;99.90
19941;DHT22;10132;50.864;5.176;2023-03-01T09:03:30;3.80;99.90
19941;DHT22;10132;50.864;5.176;2023-03-01T09:05:33;3.60;99.90
19941;DHT22;10132;50.864;5.176;2023-03-01T09:07:36;3.30;99.90
19941;DHT22;10132;50.864;5.176;2023-03-01T09:09:38;3.00;99.90
19941;DHT22;10132;50.864;5.176;2023-03-01T09:11:40;3.10;99.90
19941;DHT22;10132;50.864;5.176;2023-03-01T09:13:42;3.00;99.90
19941;DHT22;10132;50.864;5.176;2023-03-01T09:15:44;3.30;99.90
19941;DHT22;10132;50.864;5.176;2023-03-01T09:17:48;3.40;99.90
19941;DHT22;10132;50.864;5.176;2023-03-01T09:19:50;3.50;99.90
19941;DHT22;10132;50.864;5.176;2023-03-01T09:21:51;3.40;99.90
19941;DHT22;10132;50.864;5.176;2023-03-01T09:23:56;3.40;99.90
19941;DHT22;10132;50.864;5.176;2023-03-01T09:25:58;3.90;99.90
19941;DHT22;10132;50.864;5.176;2023-03-01T09:28:00;3.90;99.90
19941;DHT22;10132;50.864;5.176;2023-03-01T09:30:02;3.90;99.90
19941;DHT22;10132;50.864;5.176;2023-03-01T09:32:04;3.90;99.90
19941;DHT22;10132;50.864;5.176;2023-03-01T09:34:09;3.80;99.90
19941;DHT22;10132;50.864;5.176;2023-03-01T09:36:12;4.00;99.90
19941;DHT22;10132;50.864;5.176;2023-03-01T09:38:14;4.60;99.90
19941;DHT22;10132;50.864;5.176;2023-03-01T09:40:18;5.10;99.90
19941;DHT22;10132;50.864;5.176;2023-03-01T09:42:21;5.40;99.90
19941;DHT22;10132;50.864;5.176;2023-03-01T09:44:35;5.40;99.90
19941;DHT22;10132;50.864;5.176;2023-03-01T09:46:42;5.40;99.90
19941;DHT22;10132;50.864;5.176;2023-03-01T09:48:48;5.40;99.90
19941;DHT22;10132;50.864;5.176;2023-03-01T09:50:53;5.80;99.90
19941;DHT22;10132;50.864;5.176;2023-03-01T09:53:01;5.70;99.90
19941;DHT22;10132;50.864;5.176;2023-03-01T09:55:09;5.70;99.90
19941;DHT22;10132;50.864;5.176;2023-03-01T09:57:18;5.60;99.90
19941;DHT22;10132;50.864;5.176;2023-03-01T09:59:25;5.40;99.90
19941;DHT22;10132;50.864;5.176;2023-03-01T10:01:31;5.20;99.90
19941;DHT22;10132;50.864;5.176;2023-03-01T10:03:40;5.10;99.90
19941;DHT22;10132;50.864;5.176;2023-03-01T10:05:55;5.20;99.90
19941;DHT22;10132;50.864;5.176;2023-03-01T10:08:06;5.80;99.90
19941;DHT22;10132;50.864;5.176;2023-03-01T10:10:25;5.80;99.90
19941;DHT22;10132;50.864;5.176;2023-03-01T10:12:34;6.00;99.90
19941;DHT22;10132;50.864;5.176;2023-03-01T10:14:42;6.10;99.90
19941;DHT22;10132;50.864;5.176;2023-03-01T10:16:50;5.70;99.90
19941;DHT22;10132;50.864;5.176;2023-03-01T10:18:58;5.90;99.90
19941;DHT22;10132;50.864;5.176;2023-03-01T10:21:08;6.40;99.90
19941;DHT22;10132;50.864;5.176;2023-03-01T10:23:13;6.70;99.90
19941;DHT22;10132;50.864;5.176;2023-03-01T10:25:17;6.80;99.90
19941;DHT22;10132;50.864;5.176;2023-03-01T10:27:23;7.20;99.90
19941;DHT22;10132;50.864;5.176;2023-03-01T10:29:31;7.40;99.90
19941;DHT22;10132;50.864;5.176;2023-03-01T10:31:40;7.80;99.90
19941;DHT22;10132;50.864;5.176;2023-03-01T10:33:43;7.80;99.90
19941;DHT22;10132;50.864;5.176;2023-03-01T10:35:45;8.20;99.90
19941;DHT22;10132;50.864;5.176;2023-03-01T10:38:02;8.30;99.90
19941;DHT22;10132;50.864;5.176;2023-03-01T10:40:09;8.20;99.90
19941;DHT22;10132;50.864;5.176;2023-03-01T10:42:21;7.80;99.90
19941;DHT22;10132;50.864;5.176;2023-03-01T10:44:42;7.50;99.90
19941;DHT22;10132;50.864;5.176;2023-03-01T10:46:44;7.90;99.90
19941;DHT22;10132;50.864;5.176;2023-03-01T10:49:12;7.60;99.90
19941;DHT22;10132;50.864;5.176;2023-03-01T10:51:17;7.60;99.90
19941;DHT22;10132;50.864;5.176;2023-03-01T10:53:25;7.60;99.90
19941;DHT22;10132;50.864;5.176;2023-03-01T10:55:34;7.50;99.90
19941;DHT22;10132;50.864;5.176;2023-03-01T10:57:38;7.50;99.90
19941;DHT22;10132;50.864;5.176;2023-03-01T10:59:41;7.50;99.90
19941;DHT22;10132;50.864;5.176;2023-03-01T11:01:43;8.00;99.90
19941;DHT22;10132;50.864;5.176;2023-03-01T11:03:45;7.80;99.90
19941;DHT22;10132;50.864;5.176;2023-03-01T11:05:58;7.70;99.90
19941;DHT22;10132;50.864;5.176;2023-03-01T11:08:02;8.00;99.90
19941;DHT22;10132;50.864;5.176;2023-03-01T11:10:18;8.30;99.90
19941;DHT22;10132;50.864;5.176;2023-03-01T11:12:20;8.00;99.90
19941;DHT22;10132;50.864;5.176;2023-03-01T11:14:24;8.20;99.90
19941;DHT22;10132;50.864;5.176;2023-03-01T11:16:34;8.70;99.90
19941;DHT22;10132;50.864;5.176;2023-03-01T11:18:37;9.40;99.90
19941;DHT22;10132;50.864;5.176;2023-03-01T11:20:39;9.30;99.90
19941;DHT22;10132;50.864;5.176;2023-03-01T11:22:45;8.70;99.90
19941;DHT22;10132;50.864;5.176;2023-03-01T11:24:51;8.70;99.90
19941;DHT22;10132;50.864;5.176;2023-03-01T11:26:56;8.20;99.90
19941;DHT22;10132;50.864;5.176;2023-03-01T11:29:02;7.80;99.90
19941;DHT22;10132;50.864;5.176;2023-03-01T11:31:07;7.70;99.90
19941;DHT22;10132;50.864;5.176;2023-03-01T11:33:17;7.70;99.90
19941;DHT22;10132;50.864;5.176;2023-03-01T11:35:22;7.70;99.90
19941;DHT22;10132;50.864;5.176;2023-03-01T11:37:36;7.60;99.90
19941;DHT22;10132;50.864;5.176;2023-03-01T11:39:42;8.20;99.90
19941;DHT22;10132;50.864;5.176;2023-03-01T11:41:49;9.00;99.90
19941;DHT22;10132;50.864;5.176;2023-03-01T11:43:58;9.20;99.90
19941;DHT22;10132;50.864;5.176;2023-03-01T11:46:37;9.00;99.90
19941;DHT22;10132;50.864;5.176;2023-03-01T11:48:49;9.00;99.90
19941;DHT22;10132;50.864;5.176;2023-03-01T11:50:57;8.90;99.90
19941;DHT22;10132;50.864;5.176;2023-03-01T11:53:09;8.70;99.90
19941;DHT22;10132;50.864;5.176;2023-03-01T11:55:25;8.60;99.90
19941;DHT22;10132;50.864;5.176;2023-03-01T11:57:46;8.90;99.90
19941;DHT22;10132;50.864;5.176;2023-03-01T11:59:59;9.20;99.90
19941;DHT22;10132;50.864;5.176;2023-03-01T12:02:23;9.40;99.90
19941;DHT22;10132;50.864;5.176;2023-03-01T12:07:18;9.60;99.90
19941;DHT22;10132;50.864;5.176;2023-03-01T12:12:03;9.40;99.90
19941;DHT22;10132;50.864;5.176;2023-03-01T12:14:25;9.80;99.90
19941;DHT22;10132;50.864;5.176;2023-03-01T12:16:46;9.60;99.90
19941;DHT22;10132;50.864;5.176;2023-03-01T12:19:08;9.40;99.90
19941;DHT22;10132;50.864;5.176;2023-03-01T12:21:20;9.40;99.90
19941;DHT22;10132;50.864;5.176;2023-03-01T12:23:39;9.40;99.90
19941;DHT22;10132;50.864;5.176;2023-03-01T12:25:51;9.60;99.90
19941;DHT22;10132;50.864;5.176;2023-03-01T12:28:10;9.80;99.90
19941;DHT22;10132;50.864;5.176;2023-03-01T12:30:23;10.10;99.90
19941;DHT22;10132;50.864;5.176;2023-03-01T12:32:46;9.90;99.90
19941;DHT22;10132;50.864;5.176;2023-03-01T12:35:04;9.60;99.90
19941;DHT22;10132;50.864;5.176;2023-03-01T12:37:21;9.40;99.90
19941;DHT22;10132;50.864;5.176;2023-03-01T12:39:34;9.00;99.90
19941;DHT22;10132;50.864;5.176;2023-03-01T12:41:48;8.90;99.90
19941;DHT22;10132;50.864;5.176;2023-03-01T12:44:01;9.10;99.90
19941;DHT22;10132;50.864;5.176;2023-03-01T12:46:15;9.20;99.90
19941;DHT22;10132;50.864;5.176;2023-03-01T12:48:31;9.40;99.90
19941;DHT22;10132;50.864;5.176;2023-03-01T12:50:39;9.60;99.90
19941;DHT22;10132;50.864;5.176;2023-03-01T12:52:44;9.60;99.90
19941;DHT22;10132;50.864;5.176;2023-03-01T12:54:49;9.90;99.90
19941;DHT22;10132;50.864;5.176;2023-03-01T12:56:53;10.20;99.90
19941;DHT22;10132;50.864;5.176;2023-03-01T12:59:01;10.20;99.90
19941;DHT22;10132;50.864;5.176;2023-03-01T13:01:14;9.90;99.90
19941;DHT22;10132;50.864;5.176;2023-03-01T13:03:25;10.40;99.90
19941;DHT22;10132;50.864;5.176;2023-03-01T13:05:37;10.20;99.90
19941;DHT22;10132;50.864;5.176;2023-03-01T13:07:44;9.90;99.90
19941;DHT22;10132;50.864;5.176;2023-03-01T13:09:55;10.00;99.90
19941;DHT22;10132;50.864;5.176;2023-03-01T13:12:02;10.00;99.90
19941;DHT22;10132;50.864;5.176;2023-03-01T13:14:35;9.90;99.90
19941;DHT22;10132;50.864;5.176;2023-03-01T13:16:41;9.60;99.90
19941;DHT22;10132;50.864;5.176;2023-03-01T13:18:46;9.80;99.90
19941;DHT22;10132;50.864;5.176;2023-03-01T13:20:50;10.00;99.90
19941;DHT22;10132;50.864;5.176;2023-03-01T13:23:02;10.30;99.90